KCLM/CLM METAR and TAF weather

Enter ICAO airport designator
Station Type Date Time Source
KCLM METAR 2021/02/25 00:53 UTC NOAA

KCLM 250053Z AUTO 10004KT 10SM CLR 06/01 A3051 RMK AO2 SLP336 T00560011


Station Type Date Time Source
KCLM Decoded METAR 2021/02/25 00:53 UTC NOAA

PORT ANGELES FAIRCHILD INTERNATIONAL , WA, United States (KCLM) 48-07N 123-30W 85M
Feb 24, 2021 - 07:53 PM EST / 2021.02.25 0053 UTC
Wind: from the E (100 degrees) at 5 MPH (4 KT):0
Visibility: 10 mile(s):0
Sky conditions: clear
Temperature: 42.1 F (5.6 C)
Dew Point: 34.0 F (1.1 C)
Relative Humidity: 72%
Pressure (altimeter): 30.51 in. Hg (1033 hPa)
ob: KCLM 250053Z AUTO 10004KT 10SM CLR 06/01 A3051 RMK AO2 SLP336 T00560011
cycle: 1

Station Type Date Time Source
KCLM TAF 2021/02/24 18:33 UTC NOAA

TAF KCLM 241731Z 2418/2518 VRB04KT P6SM SCT025
TEMPO 2418/2421 BKN025
FM242100 07002KT P6SM OVC250
FM250300 VRB03KT P6SM OVC100
FM250700 24006KT P6SM OVC030
FM251200 25012KT P6SM -RA OVC015

Example: see airport list